createdAt,value
2023-01-28T00:00:47.438Z,98.20
2023-01-28T00:03:16.095Z,98.10
2023-01-28T00:05:43.065Z,98.00
2023-01-28T00:08:10.382Z,98.00
2023-01-28T00:10:40.227Z,98.00
2023-01-28T00:13:07.372Z,98.10
2023-01-28T00:15:34.363Z,97.90
2023-01-28T00:18:01.135Z,97.80
2023-01-28T00:20:27.867Z,97.80
2023-01-28T00:22:54.584Z,97.80
2023-01-28T00:25:21.417Z,97.90
2023-01-28T00:27:48.398Z,98.20
2023-01-28T00:30:15.251Z,98.00
2023-01-28T00:32:43.517Z,98.00
2023-01-28T00:35:11.615Z,98.00
2023-01-28T00:37:38.403Z,98.00
2023-01-28T00:40:05.444Z,98.00
2023-01-28T00:42:32.411Z,98.00
2023-01-28T00:44:59.185Z,97.80
2023-01-28T00:47:25.990Z,97.80
2023-01-28T00:49:52.817Z,97.90
2023-01-28T00:52:19.556Z,97.90
2023-01-28T00:54:46.317Z,97.90
2023-01-28T00:57:13.280Z,98.00
2023-01-28T00:59:40.025Z,98.00
2023-01-28T01:02:12.776Z,97.80
2023-01-28T01:04:40.379Z,97.90
2023-01-28T01:07:07.286Z,97.80
2023-01-28T01:09:34.218Z,97.90
2023-01-28T01:12:01.020Z,98.20
2023-01-28T01:14:27.885Z,97.90
2023-01-28T01:16:54.767Z,97.90
2023-01-28T01:19:23.397Z,97.90
2023-01-28T01:21:50.908Z,97.90
2023-01-28T01:24:18.374Z,97.90
2023-01-28T01:26:45.104Z,97.90
2023-01-28T01:29:11.873Z,98.00
2023-01-28T01:31:38.901Z,98.00
2023-01-28T01:34:05.735Z,98.00
2023-01-28T01:36:32.508Z,98.00
2023-01-28T01:38:59.359Z,98.10
2023-01-28T01:41:30.574Z,98.10
2023-01-28T01:43:58.822Z,98.10
2023-01-28T01:46:28.381Z,98.00
2023-01-28T01:48:56.969Z,98.00
2023-01-28T01:51:27.725Z,98.10
2023-01-28T01:53:56.216Z,97.80
2023-01-28T01:56:25.853Z,97.90
2023-01-28T01:58:54.754Z,98.00
2023-01-28T02:01:22.763Z,98.10
2023-01-28T02:03:58.831Z,98.10
2023-01-28T02:06:26.583Z,98.00
2023-01-28T02:08:55.565Z,98.00
2023-01-28T02:11:24.835Z,98.00
2023-01-28T02:13:56.203Z,98.10
2023-01-28T02:16:24.814Z,98.00
2023-01-28T02:18:51.630Z,97.90
2023-01-28T02:21:36.977Z,98.00
2023-01-28T02:24:03.845Z,97.90
2023-01-28T02:26:45.938Z,97.90
2023-01-28T02:29:21.345Z,98.00
2023-01-28T02:32:08.375Z,97.90
2023-01-28T02:34:55.406Z,97.80
2023-01-28T02:37:24.065Z,97.90
2023-01-28T02:40:01.507Z,98.00
2023-01-28T02:42:33.982Z,97.90
2023-01-28T02:45:00.767Z,98.00
2023-01-28T02:47:46.128Z,98.00
2023-01-28T02:50:14.428Z,98.00
2023-01-28T02:53:18.811Z,98.00
2023-01-28T02:55:51.910Z,98.00
2023-01-28T02:58:45.218Z,98.00
2023-01-28T03:01:21.080Z,97.90
2023-01-28T03:04:10.973Z,98.00
2023-01-28T03:06:39.724Z,98.00
2023-01-28T03:09:23.899Z,97.90
2023-01-28T03:12:17.659Z,98.00
2023-01-28T03:15:05.501Z,97.90
2023-01-28T03:18:08.491Z,97.90
2023-01-28T03:21:22.967Z,97.90
2023-01-28T03:24:27.139Z,97.90
2023-01-28T03:27:12.419Z,98.00
2023-01-28T03:29:58.530Z,97.90
2023-01-28T03:32:44.172Z,97.90
2023-01-28T03:35:30.834Z,97.90
2023-01-28T03:38:00.470Z,98.00
2023-01-28T03:40:28.036Z,98.00
2023-01-28T03:42:56.865Z,97.90
2023-01-28T03:45:23.658Z,97.90
2023-01-28T03:47:50.404Z,97.80
2023-01-28T03:50:17.186Z,97.90
2023-01-28T03:52:43.912Z,97.80
2023-01-28T03:55:14.672Z,98.00
2023-01-28T03:57:41.769Z,97.90
2023-01-28T04:00:10.645Z,97.90
2023-01-28T04:02:40.266Z,97.90
2023-01-28T04:05:13.082Z,97.80
2023-01-28T04:07:40.201Z,97.80
2023-01-28T04:10:08.787Z,97.80
2023-01-28T04:12:38.023Z,97.90
2023-01-28T04:15:15.723Z,97.90
2023-01-28T04:17:49.278Z,97.80
2023-01-28T04:20:16.279Z,97.70
2023-01-28T04:22:43.500Z,97.70
2023-01-28T04:25:10.439Z,97.70
2023-01-28T04:27:37.216Z,97.70
2023-01-28T04:30:04.060Z,97.70
2023-01-28T04:32:31.032Z,97.70
2023-01-28T04:34:57.777Z,97.70
2023-01-28T04:37:24.518Z,97.60
2023-01-28T04:39:51.307Z,97.70
2023-01-28T04:42:18.132Z,97.70
2023-01-28T04:44:44.877Z,97.60
2023-01-28T04:47:11.784Z,97.60
2023-01-28T04:49:38.496Z,97.80
2023-01-28T04:52:05.390Z,97.60
2023-01-28T04:54:32.122Z,97.60
2023-01-28T04:56:58.896Z,97.70
2023-01-28T04:59:25.739Z,97.80
2023-01-28T05:01:52.496Z,97.70
2023-01-28T05:04:19.251Z,97.80
2023-01-28T05:06:46.007Z,97.80
2023-01-28T05:09:12.809Z,97.70
2023-01-28T05:11:39.561Z,97.70
2023-01-28T05:14:06.384Z,97.80
2023-01-28T05:16:34.968Z,97.80
2023-01-28T05:19:01.997Z,97.80
2023-01-28T05:21:28.877Z,97.90
2023-01-28T05:23:55.745Z,97.70
2023-01-28T05:26:22.538Z,97.70
2023-01-28T05:28:49.339Z,97.80
2023-01-28T05:31:16.192Z,97.80
2023-01-28T05:33:42.998Z,97.80
2023-01-28T05:36:09.760Z,97.80
2023-01-28T05:38:36.512Z,97.90
2023-01-28T05:41:03.321Z,97.80
2023-01-28T05:43:30.086Z,97.80
2023-01-28T05:45:56.947Z,97.90
2023-01-28T05:48:23.662Z,97.90
2023-01-28T05:50:51.066Z,97.80
2023-01-28T05:53:17.841Z,97.80
2023-01-28T05:55:47.660Z,97.80
2023-01-28T05:58:14.422Z,97.90
2023-01-28T06:00:41.171Z,97.90
2023-01-28T06:03:07.938Z,97.80
2023-01-28T06:05:34.751Z,97.80
2023-01-28T06:08:01.625Z,97.80
2023-01-28T06:10:28.363Z,98.10
2023-01-28T06:12:55.113Z,97.80
2023-01-28T06:15:22.081Z,97.70
2023-01-28T06:17:48.842Z,97.90
2023-01-28T06:20:17.448Z,97.90
2023-01-28T06:22:44.389Z,97.90
2023-01-28T06:25:11.128Z,97.90
2023-01-28T06:27:38.086Z,97.80
2023-01-28T06:30:05.173Z,97.80
2023-01-28T06:32:32.517Z,97.90
2023-01-28T06:34:59.347Z,97.80
2023-01-28T06:37:26.446Z,97.80
2023-01-28T06:39:53.242Z,97.70
2023-01-28T06:42:20.017Z,97.70
2023-01-28T06:44:46.764Z,97.70
2023-01-28T06:47:14.929Z,97.70
2023-01-28T06:49:41.691Z,97.80
2023-01-28T06:52:08.620Z,97.70
2023-01-28T06:54:35.378Z,97.60
2023-01-28T06:57:02.139Z,97.70
2023-01-28T06:59:28.908Z,97.70
2023-01-28T07:01:55.763Z,97.70
2023-01-28T07:04:22.573Z,97.60
2023-01-28T07:06:49.352Z,97.70
2023-01-28T07:09:16.127Z,97.60
2023-01-28T07:11:42.849Z,97.60
2023-01-28T07:14:09.639Z,97.60
2023-01-28T07:16:36.367Z,97.60
2023-01-28T07:19:03.246Z,97.60
2023-01-28T07:21:30.099Z,97.60
2023-01-28T07:23:57.990Z,97.70
2023-01-28T07:26:24.866Z,97.70
2023-01-28T07:28:51.726Z,97.60
2023-01-28T07:31:18.608Z,97.70
2023-01-28T07:33:45.347Z,97.70
2023-01-28T07:36:12.104Z,97.70
2023-01-28T07:38:38.850Z,97.50
2023-01-28T07:41:05.598Z,97.60
2023-01-28T07:43:32.452Z,97.60
2023-01-28T07:46:02.406Z,97.50
2023-01-28T07:48:29.220Z,97.60
2023-01-28T07:50:58.548Z,97.50
2023-01-28T07:53:25.440Z,97.60
2023-01-28T07:55:52.200Z,97.60
2023-01-28T07:58:19.040Z,97.70
2023-01-28T08:00:45.792Z,97.60
2023-01-28T08:03:15.996Z,97.70
2023-01-28T08:05:44.814Z,97.70
2023-01-28T08:08:11.688Z,97.70
2023-01-28T08:10:38.897Z,97.80
2023-01-28T08:13:05.957Z,97.80
2023-01-28T08:15:34.828Z,97.80
2023-01-28T08:18:03.769Z,97.80
2023-01-28T08:20:30.886Z,97.80
2023-01-28T08:23:17.835Z,97.80
2023-01-28T08:25:45.078Z,97.80
2023-01-28T08:28:12.351Z,97.80
2023-01-28T08:30:39.594Z,97.70
2023-01-28T08:33:07.633Z,97.70
2023-01-28T08:35:34.467Z,97.70
2023-01-28T08:38:01.787Z,97.80
2023-01-28T08:40:28.879Z,97.80
2023-01-28T08:42:55.689Z,97.80
2023-01-28T08:45:27.529Z,97.80
2023-01-28T08:47:56.552Z,97.80
2023-01-28T08:50:24.240Z,97.80
2023-01-28T08:52:55.770Z,97.70
2023-01-28T08:55:22.517Z,97.70
2023-01-28T08:57:49.232Z,97.70
2023-01-28T09:00:16.589Z,97.70
2023-01-28T09:02:43.753Z,97.60
2023-01-28T09:05:11.064Z,97.70
2023-01-28T09:07:38.366Z,97.60
2023-01-28T09:10:05.786Z,97.70
2023-01-28T09:12:32.741Z,97.70
2023-01-28T09:14:59.543Z,97.70
2023-01-28T09:17:26.300Z,97.70
2023-01-28T09:19:53.027Z,97.70
2023-01-28T09:22:19.859Z,97.70
2023-01-28T09:24:46.776Z,97.80
2023-01-28T09:27:13.535Z,98.10
2023-01-28T09:29:40.364Z,97.80
2023-01-28T09:32:07.639Z,97.80
2023-01-28T09:34:34.485Z,97.80
2023-01-28T09:37:01.594Z,97.70
2023-01-28T09:39:31.304Z,97.70
2023-01-28T09:42:03.982Z,97.70
2023-01-28T09:44:51.966Z,97.70
2023-01-28T09:47:41.723Z,97.80
2023-01-28T09:50:12.002Z,97.80
2023-01-28T09:52:40.536Z,97.80
2023-01-28T09:55:15.706Z,97.80
2023-01-28T09:58:00.423Z,97.80
2023-01-28T10:00:33.544Z,95.20
2023-01-28T10:03:07.365Z,94.10
2023-01-28T10:05:34.099Z,93.90
2023-01-28T10:08:23.061Z,94.00
2023-01-28T10:10:55.832Z,94.20
2023-01-28T10:13:41.159Z,94.40
2023-01-28T10:16:21.344Z,94.00
2023-01-28T10:18:53.959Z,93.90
2023-01-28T10:21:46.904Z,93.90
2023-01-28T10:24:25.727Z,93.70
2023-01-28T10:26:53.061Z,93.70
2023-01-28T10:29:22.007Z,94.10
2023-01-28T10:32:21.343Z,93.80
2023-01-28T10:34:48.081Z,93.60
2023-01-28T10:37:16.033Z,93.70
2023-01-28T10:39:43.344Z,93.50
2023-01-28T10:42:25.162Z,93.90
2023-01-28T10:44:52.361Z,94.10
2023-01-28T10:47:42.450Z,94.00
2023-01-28T10:50:16.201Z,93.60
2023-01-28T10:52:52.945Z,93.40
2023-01-28T10:55:19.733Z,94.10
2023-01-28T10:57:46.644Z,93.60
2023-01-28T11:00:23.360Z,93.90
2023-01-28T11:02:50.380Z,93.60
2023-01-28T11:05:17.340Z,93.80
2023-01-28T11:07:44.907Z,93.70
2023-01-28T11:10:29.935Z,93.60
2023-01-28T11:12:57.740Z,93.50
2023-01-28T11:15:24.538Z,93.30
2023-01-28T11:17:55.669Z,93.40
2023-01-28T11:20:24.327Z,92.90
2023-01-28T11:22:51.464Z,93.60
2023-01-28T11:25:19.755Z,93.30
2023-01-28T11:27:47.788Z,92.80
2023-01-28T11:30:28.157Z,92.90
2023-01-28T11:33:18.038Z,92.60
2023-01-28T11:36:05.026Z,93.10
2023-01-28T11:38:31.967Z,93.40
2023-01-28T11:40:58.850Z,93.10
2023-01-28T11:43:26.505Z,92.80
2023-01-28T11:45:53.352Z,93.10
2023-01-28T11:48:26.188Z,92.90
2023-01-28T11:50:52.920Z,93.10
2023-01-28T11:53:22.698Z,93.30
2023-01-28T11:55:49.471Z,93.60
2023-01-28T11:58:42.787Z,93.10
2023-01-28T12:01:09.537Z,93.10
2023-01-28T12:03:42.642Z,93.40
2023-01-28T12:06:28.307Z,93.00
2023-01-28T12:09:07.688Z,93.10
2023-01-28T12:12:05.126Z,92.90
2023-01-28T12:14:44.246Z,93.10
2023-01-28T12:17:26.409Z,93.50
2023-01-28T12:19:58.558Z,93.70
2023-01-28T12:22:51.773Z,93.20
2023-01-28T12:25:26.005Z,93.20
2023-01-28T12:27:56.164Z,93.20
2023-01-28T12:30:35.147Z,93.10
2023-01-28T12:33:01.859Z,93.20
2023-01-28T12:35:32.780Z,92.80
2023-01-28T12:38:03.263Z,93.00
2023-01-28T12:40:43.804Z,93.20
2023-01-28T12:43:22.827Z,93.00
2023-01-28T12:46:03.618Z,93.30
2023-01-28T12:48:37.907Z,93.10
2023-01-28T12:51:08.429Z,92.20
2023-01-28T12:53:47.517Z,93.00
2023-01-28T12:56:17.563Z,93.00
2023-01-28T12:58:47.432Z,92.50
2023-01-28T13:01:16.574Z,92.60
2023-01-28T13:03:51.788Z,92.80
2023-01-28T13:06:24.956Z,92.70
2023-01-28T13:08:56.396Z,92.50
2023-01-28T13:11:23.993Z,93.00
2023-01-28T13:13:51.014Z,92.50
2023-01-28T13:16:19.383Z,92.70
2023-01-28T13:18:48.038Z,92.50
2023-01-28T13:21:47.563Z,92.60
2023-01-28T13:24:15.615Z,92.70
2023-01-28T13:26:55.832Z,92.40
2023-01-28T13:29:22.638Z,92.40
2023-01-28T13:31:52.319Z,92.60
2023-01-28T13:34:29.963Z,92.40
2023-01-28T13:36:58.360Z,92.40
2023-01-28T13:39:26.659Z,92.60
2023-01-28T13:41:54.684Z,92.30
2023-01-28T13:44:32.187Z,92.30
2023-01-28T13:47:00.615Z,92.30
2023-01-28T13:49:34.224Z,92.50
2023-01-28T13:52:19.760Z,92.40
2023-01-28T13:54:55.647Z,92.40
2023-01-28T13:57:25.467Z,92.20
2023-01-28T13:59:52.226Z,91.80
2023-01-28T14:02:37.841Z,91.90
2023-01-28T14:05:23.927Z,91.40
2023-01-28T14:07:59.653Z,91.60
2023-01-28T14:11:04.643Z,91.80
2023-01-28T14:13:41.040Z,91.50
2023-01-28T14:16:26.374Z,91.20
2023-01-28T14:18:53.428Z,92.00
2023-01-28T14:21:21.933Z,91.30
2023-01-28T14:23:49.986Z,91.50
2023-01-28T14:26:23.231Z,91.70
2023-01-28T14:28:55.972Z,91.40
2023-01-28T14:31:36.855Z,91.70
2023-01-28T14:34:11.087Z,91.50
2023-01-28T14:36:41.466Z,90.40
2023-01-28T14:39:21.917Z,91.50
2023-01-28T14:41:49.859Z,89.50
2023-01-28T14:44:31.621Z,88.90
2023-01-28T14:47:16.663Z,91.10
2023-01-28T14:50:02.067Z,91.50
2023-01-28T14:52:43.950Z,89.50
2023-01-28T14:55:33.970Z,88.80
2023-01-28T14:58:03.121Z,91.70
2023-01-28T15:00:31.189Z,92.30
2023-01-28T15:02:58.015Z,92.40
2023-01-28T15:05:26.773Z,92.40
2023-01-28T15:07:53.887Z,92.60
2023-01-28T15:10:26.827Z,93.00
2023-01-28T15:12:59.796Z,93.20
2023-01-28T15:15:37.214Z,93.40
2023-01-28T15:18:21.907Z,93.50
2023-01-28T15:20:51.300Z,93.70
2023-01-28T15:23:21.068Z,93.80
2023-01-28T15:25:47.852Z,93.90
2023-01-28T15:28:22.196Z,94.00
2023-01-28T15:30:48.987Z,94.10
2023-01-28T15:33:19.971Z,94.20
2023-01-28T15:35:47.959Z,94.20
2023-01-28T15:38:14.779Z,94.30
2023-01-28T15:40:42.729Z,94.40
2023-01-28T15:43:38.650Z,94.50
2023-01-28T15:46:11.309Z,94.50
2023-01-28T15:48:41.961Z,94.80
2023-01-28T15:51:10.029Z,94.60
2023-01-28T15:53:42.781Z,94.70
2023-01-28T15:56:10.847Z,94.70
2023-01-28T15:58:41.396Z,94.80
2023-01-28T16:01:08.332Z,94.80
2023-01-28T16:03:42.150Z,94.90
2023-01-28T16:06:16.796Z,94.90
2023-01-28T16:08:46.503Z,94.90
2023-01-28T16:11:13.597Z,95.00
2023-01-28T16:13:44.297Z,95.00
2023-01-28T16:16:11.691Z,95.10
2023-01-28T16:18:40.479Z,95.10
2023-01-28T16:21:10.460Z,95.10
2023-01-28T16:23:39.453Z,95.20
2023-01-28T16:26:23.554Z,95.20
2023-01-28T16:28:50.602Z,95.20
2023-01-28T16:31:17.798Z,95.20
2023-01-28T16:33:45.056Z,95.30
2023-01-28T16:36:13.463Z,95.40
2023-01-28T16:38:41.034Z,95.40
2023-01-28T16:41:34.162Z,95.40
2023-01-28T16:44:05.951Z,95.40
2023-01-28T16:46:36.220Z,95.40
2023-01-28T16:49:03.086Z,95.50
2023-01-28T16:51:29.829Z,95.40
2023-01-28T16:53:57.368Z,95.50
2023-01-28T16:56:43.952Z,95.50
2023-01-28T16:59:11.940Z,95.50
2023-01-28T17:01:38.752Z,95.60
2023-01-28T17:04:11.481Z,95.60
2023-01-28T17:06:43.345Z,95.60
2023-01-28T17:09:11.256Z,95.70
2023-01-28T17:11:40.736Z,95.60
2023-01-28T17:14:07.912Z,95.70
2023-01-28T17:16:34.846Z,95.70
2023-01-28T17:19:01.670Z,95.70
2023-01-28T17:21:28.556Z,95.80
2023-01-28T17:23:56.555Z,95.80
2023-01-28T17:26:24.921Z,95.70
2023-01-28T17:28:53.412Z,95.70
2023-01-28T17:31:20.742Z,95.80
2023-01-28T17:33:47.679Z,95.80
2023-01-28T17:36:14.618Z,95.80
2023-01-28T17:38:44.257Z,95.80
2023-01-28T17:41:11.465Z,95.80
2023-01-28T17:43:38.291Z,95.90
2023-01-28T17:46:14.709Z,95.90
2023-01-28T17:48:42.898Z,95.90
2023-01-28T17:51:09.734Z,95.90
2023-01-28T17:53:36.507Z,95.90
2023-01-28T17:56:03.430Z,95.90
2023-01-28T17:58:30.221Z,96.00
2023-01-28T18:00:57.044Z,96.00
2023-01-28T18:03:23.945Z,96.00
2023-01-28T18:05:58.488Z,96.00
2023-01-28T18:08:25.437Z,96.00
2023-01-28T18:10:52.169Z,96.10
2023-01-28T18:13:18.949Z,96.10
2023-01-28T18:15:45.780Z,96.10
2023-01-28T18:18:12.546Z,96.10
2023-01-28T18:20:39.285Z,96.10
2023-01-28T18:23:06.067Z,96.10
2023-01-28T18:25:32.831Z,96.10
2023-01-28T18:27:59.631Z,96.10
2023-01-28T18:30:26.469Z,96.20
2023-01-28T18:32:53.225Z,96.10
2023-01-28T18:35:19.930Z,96.10
2023-01-28T18:37:46.844Z,96.20
2023-01-28T18:40:13.633Z,96.20
2023-01-28T18:42:40.816Z,96.20
2023-01-28T18:45:07.973Z,96.30
2023-01-28T18:47:34.716Z,96.20
2023-01-28T18:50:01.584Z,96.30
2023-01-28T18:52:28.501Z,96.30
2023-01-28T18:54:55.273Z,96.30
2023-01-28T18:57:22.020Z,96.30
2023-01-28T18:59:48.892Z,96.20
2023-01-28T19:02:16.358Z,96.30
2023-01-28T19:04:43.209Z,96.20
2023-01-28T19:07:11.770Z,96.20
2023-01-28T19:09:38.744Z,96.20
2023-01-28T19:12:05.680Z,96.20
2023-01-28T19:14:32.482Z,96.30
2023-01-28T19:16:59.299Z,96.30
2023-01-28T19:19:26.079Z,96.20
2023-01-28T19:21:53.573Z,96.30
2023-01-28T19:24:20.553Z,96.30
2023-01-28T19:26:47.365Z,96.10
2023-01-28T19:29:16.382Z,96.20
2023-01-28T19:31:44.448Z,96.20
2023-01-28T19:34:11.726Z,96.20
2023-01-28T19:36:38.990Z,96.20
2023-01-28T19:39:07.182Z,96.20
2023-01-28T19:41:34.330Z,96.30
2023-01-28T19:44:01.389Z,96.30
2023-01-28T19:46:28.363Z,96.20
2023-01-28T19:48:55.390Z,96.20
2023-01-28T19:51:22.184Z,96.20
2023-01-28T19:53:50.301Z,96.20
2023-01-28T19:56:18.559Z,96.30
2023-01-28T19:58:46.022Z,96.30
2023-01-28T20:01:17.539Z,96.30
2023-01-28T20:03:44.876Z,96.30
2023-01-28T20:06:13.247Z,96.30
2023-01-28T20:08:40.026Z,96.20
2023-01-28T20:11:12.066Z,96.20
2023-01-28T20:13:40.886Z,96.30
2023-01-28T20:16:21.632Z,96.30
2023-01-28T20:18:50.100Z,96.30
2023-01-28T20:21:18.835Z,96.20
2023-01-28T20:23:49.375Z,96.30
2023-01-28T20:26:16.554Z,96.20
2023-01-28T20:28:43.390Z,96.20
2023-01-28T20:31:10.909Z,96.30
2023-01-28T20:33:38.504Z,96.30
2023-01-28T20:36:09.557Z,96.20
2023-01-28T20:38:37.329Z,96.20
2023-01-28T20:41:07.531Z,96.20
2023-01-28T20:43:37.672Z,96.30
2023-01-28T20:46:14.446Z,96.30
2023-01-28T20:48:41.527Z,96.40
2023-01-28T20:51:12.459Z,96.30
2023-01-28T20:53:39.940Z,96.20
2023-01-28T20:56:07.396Z,96.20
2023-01-28T20:58:34.359Z,96.30
2023-01-28T21:01:01.494Z,96.20
2023-01-28T21:03:29.218Z,96.30
2023-01-28T21:05:56.275Z,96.30
2023-01-28T21:08:23.272Z,96.20
2023-01-28T21:10:50.118Z,96.30
2023-01-28T21:13:17.057Z,96.20
2023-01-28T21:15:54.825Z,96.20
2023-01-28T21:18:21.834Z,96.20
2023-01-28T21:20:49.286Z,96.20
2023-01-28T21:23:16.308Z,96.10
2023-01-28T21:25:43.931Z,96.10
2023-01-28T21:28:11.035Z,96.10
2023-01-28T21:30:38.449Z,96.10
2023-01-28T21:33:06.181Z,96.20
2023-01-28T21:35:36.863Z,96.20
2023-01-28T21:38:03.727Z,96.20
2023-01-28T21:40:30.920Z,96.20
2023-01-28T21:42:57.661Z,96.20
2023-01-28T21:45:24.501Z,96.20
2023-01-28T21:47:51.318Z,96.30
2023-01-28T21:50:18.465Z,96.30
2023-01-28T21:52:48.075Z,96.30
2023-01-28T21:55:14.937Z,96.30
2023-01-28T21:57:41.707Z,96.30
2023-01-28T22:00:09.590Z,96.20
2023-01-28T22:02:39.102Z,96.20
2023-01-28T22:05:06.289Z,96.30
2023-01-28T22:07:33.176Z,96.30
2023-01-28T22:09:59.948Z,96.30
2023-01-28T22:12:28.234Z,96.40
2023-01-28T22:14:55.261Z,96.50
2023-01-28T22:17:22.120Z,96.60
2023-01-28T22:19:49.117Z,96.40
2023-01-28T22:22:16.542Z,96.30
2023-01-28T22:24:43.473Z,96.40
2023-01-28T22:27:10.327Z,96.40
2023-01-28T22:29:37.090Z,96.40
2023-01-28T22:32:04.930Z,96.40
2023-01-28T22:34:31.816Z,96.40
2023-01-28T22:36:58.657Z,96.40
2023-01-28T22:39:25.468Z,96.40
2023-01-28T22:41:52.270Z,96.20
2023-01-28T22:44:20.200Z,96.30
2023-01-28T22:46:47.525Z,96.30
2023-01-28T22:49:15.236Z,96.60
2023-01-28T22:51:42.192Z,96.40
2023-01-28T22:54:10.502Z,96.40
2023-01-28T22:56:37.321Z,96.40
2023-01-28T22:59:04.555Z,96.50
2023-01-28T23:01:31.484Z,96.40
2023-01-28T23:03:58.489Z,96.50
2023-01-28T23:06:26.545Z,96.40
2023-01-28T23:08:54.381Z,96.30
2023-01-28T23:11:27.469Z,96.30
2023-01-28T23:14:14.319Z,96.30
2023-01-28T23:16:59.937Z,96.50
2023-01-28T23:19:45.433Z,96.40
2023-01-28T23:22:31.504Z,96.30
2023-01-28T23:24:58.828Z,96.30
2023-01-28T23:27:25.652Z,96.30
2023-01-28T23:29:52.558Z,96.40
2023-01-28T23:32:20.278Z,96.70
2023-01-28T23:34:47.106Z,96.60
2023-01-28T23:37:14.281Z,96.50
2023-01-28T23:39:41.696Z,96.60
2023-01-28T23:42:09.291Z,96.50
2023-01-28T23:44:36.189Z,96.40
2023-01-28T23:47:03.034Z,96.50
2023-01-28T23:49:29.787Z,96.60
2023-01-28T23:51:56.592Z,96.50
2023-01-28T23:54:23.351Z,96.60
2023-01-28T23:56:50.369Z,96.40
2023-01-28T23:59:17.467Z,96.40
